sensor_id;sensor_type;location;lat;lon;timestamp;temperature;humidity
29255;DHT22;16277;48.890;2.306;2022-11-20T05:00:08;11.30;99.90
29255;DHT22;16277;48.890;2.306;2022-11-20T05:15:13;11.20;99.90
29255;DHT22;16277;48.890;2.306;2022-11-20T05:30:18;11.90;99.90
29255;DHT22;16277;48.890;2.306;2022-11-20T05:45:22;11.70;99.90
29255;DHT22;16277;48.890;2.306;2022-11-20T06:00:27;11.60;99.90
29255;DHT22;16277;48.890;2.306;2022-11-20T06:15:31;11.30;99.90
29255;DHT22;16277;48.890;2.306;2022-11-20T06:30:36;12.00;99.90
29255;DHT22;16277;48.890;2.306;2022-11-20T06:45:40;12.00;99.90
29255;DHT22;16277;48.890;2.306;2022-11-20T07:00:45;12.10;99.90
29255;DHT22;16277;48.890;2.306;2022-11-20T07:15:50;12.00;99.90
29255;DHT22;16277;48.890;2.306;2022-11-20T07:30:54;12.30;99.90
29255;DHT22;16277;48.890;2.306;2022-11-20T07:45:59;11.70;99.90
29255;DHT22;16277;48.890;2.306;2022-11-20T08:01:04;11.60;99.90
29255;DHT22;16277;48.890;2.306;2022-11-20T08:16:09;12.20;99.90
29255;DHT22;16277;48.890;2.306;2022-11-20T08:31:13;12.20;99.90
29255;DHT22;16277;48.890;2.306;2022-11-20T08:46:18;12.30;99.90
29255;DHT22;16277;48.890;2.306;2022-11-20T09:01:23;12.40;99.90
29255;DHT22;16277;48.890;2.306;2022-11-20T09:16:27;12.10;99.90
29255;DHT22;16277;48.890;2.306;2022-11-20T09:31:32;12.20;99.90
29255;DHT22;16277;48.890;2.306;2022-11-20T09:46:40;12.10;99.90
29255;DHT22;16277;48.890;2.306;2022-11-20T10:01:48;12.60;99.90
29255;DHT22;16277;48.890;2.306;2022-11-20T10:16:57;12.20;99.90
29255;DHT22;16277;48.890;2.306;2022-11-20T10:32:10;12.60;99.90
29255;DHT22;16277;48.890;2.306;2022-11-20T10:47:17;12.50;99.90
29255;DHT22;16277;48.890;2.306;2022-11-20T11:02:23;12.20;99.90
29255;DHT22;16277;48.890;2.306;2022-11-20T11:17:29;12.50;99.90
29255;DHT22;16277;48.890;2.306;2022-11-20T11:32:34;12.10;99.90
29255;DHT22;16277;48.890;2.306;2022-11-20T11:47:45;11.90;99.90
29255;DHT22;16277;48.890;2.306;2022-11-20T12:02:57;11.80;99.90
29255;DHT22;16277;48.890;2.306;2022-11-20T12:18:13;11.80;99.90
29255;DHT22;16277;48.890;2.306;2022-11-20T12:33:55;11.70;99.90
29255;DHT22;16277;48.890;2.306;2022-11-20T12:49:21;11.80;99.90
29255;DHT22;16277;48.890;2.306;2022-11-20T13:04:54;12.00;99.90
29255;DHT22;16277;48.890;2.306;2022-11-20T13:20:00;12.00;99.90
29255;DHT22;16277;48.890;2.306;2022-11-20T13:35:05;12.70;99.90
29255;DHT22;16277;48.890;2.306;2022-11-20T13:50:13;12.40;99.90
29255;DHT22;16277;48.890;2.306;2022-11-20T14:05:20;12.50;99.90
29255;DHT22;16277;48.890;2.306;2022-11-20T14:20:27;12.90;99.90
29255;DHT22;16277;48.890;2.306;2022-11-20T14:35:40;12.40;99.90
29255;DHT22;16277;48.890;2.306;2022-11-20T14:50:48;12.90;99.90
29255;DHT22;16277;48.890;2.306;2022-11-20T15:05:52;12.90;99.90
29255;DHT22;16277;48.890;2.306;2022-11-20T15:21:01;12.70;99.90
29255;DHT22;16277;48.890;2.306;2022-11-20T15:36:06;12.90;99.90
29255;DHT22;16277;48.890;2.306;2022-11-20T15:51:19;12.60;99.90
29255;DHT22;16277;48.890;2.306;2022-11-20T16:06:25;12.50;99.90
29255;DHT22;16277;48.890;2.306;2022-11-20T16:21:30;12.50;99.90
29255;DHT22;16277;48.890;2.306;2022-11-20T16:36:34;12.40;99.90
29255;DHT22;16277;48.890;2.306;2022-11-20T16:51:39;12.20;99.90
29255;DHT22;16277;48.890;2.306;2022-11-20T17:06:44;12.10;99.90
29255;DHT22;16277;48.890;2.306;2022-11-20T17:21:49;12.10;99.90
29255;DHT22;16277;48.890;2.306;2022-11-20T17:36:54;12.10;99.90
29255;DHT22;16277;48.890;2.306;2022-11-20T17:51:59;12.50;99.90
29255;DHT22;16277;48.890;2.306;2022-11-20T18:07:03;12.40;99.90
29255;DHT22;16277;48.890;2.306;2022-11-20T18:22:08;12.30;99.90
29255;DHT22;16277;48.890;2.306;2022-11-20T18:37:13;12.40;99.90
29255;DHT22;16277;48.890;2.306;2022-11-20T18:52:20;12.30;99.90
29255;DHT22;16277;48.890;2.306;2022-11-20T19:07:26;11.90;99.90
29255;DHT22;16277;48.890;2.306;2022-11-20T19:22:30;12.20;99.90
29255;DHT22;16277;48.890;2.306;2022-11-20T19:37:35;12.00;99.90
29255;DHT22;16277;48.890;2.306;2022-11-20T19:52:39;12.00;99.90
29255;DHT22;16277;48.890;2.306;2022-11-20T20:07:43;12.00;99.90
29255;DHT22;16277;48.890;2.306;2022-11-20T20:22:48;11.90;99.90
29255;DHT22;16277;48.890;2.306;2022-11-20T20:37:52;11.80;99.90
29255;DHT22;16277;48.890;2.306;2022-11-20T20:52:57;11.60;99.90
29255;DHT22;16277;48.890;2.306;2022-11-20T21:08:01;11.70;99.90
